sensor_id;sensor_type;location;lat;lon;timestamp;pressure;altitude;pressure_sealevel;temperature;humidity
82784;BME280;72520;55.762;37.780;2024-03-17T00:00:39;100224.88;;;1.52;62.78
82784;BME280;72520;55.762;37.780;2024-03-17T00:03:41;100223.69;;;1.65;62.77
82784;BME280;72520;55.762;37.780;2024-03-17T00:06:45;100222.56;;;1.77;62.94
82784;BME280;72520;55.762;37.780;2024-03-17T00:09:49;100218.03;;;1.83;62.59
82784;BME280;72520;55.762;37.780;2024-03-17T00:12:54;100218.91;;;1.82;62.49
82784;BME280;72520;55.762;37.780;2024-03-17T00:15:57;100207.44;;;1.86;62.04
82784;BME280;72520;55.762;37.780;2024-03-17T00:19:00;100214.47;;;1.84;62.10
82784;BME280;72520;55.762;37.780;2024-03-17T00:22:01;100215.47;;;1.80;62.38
82784;BME280;72520;55.762;37.780;2024-03-17T00:25:04;100208.59;;;1.75;62.58
82784;BME280;72520;55.762;37.780;2024-03-17T00:28:06;100205.41;;;1.62;62.53
82784;BME280;72520;55.762;37.780;2024-03-17T00:31:09;100212.56;;;1.54;62.82
82784;BME280;72520;55.762;37.780;2024-03-17T00:34:13;100196.00;;;1.52;63.36
82784;BME280;72520;55.762;37.780;2024-03-17T00:37:17;100199.44;;;1.54;63.40
82784;BME280;72520;55.762;37.780;2024-03-17T00:40:19;100195.38;;;1.42;62.99
82784;BME280;72520;55.762;37.780;2024-03-17T00:43:22;100198.88;;;1.40;63.94
82784;BME280;72520;55.762;37.780;2024-03-17T00:46:28;100192.75;;;1.41;63.34
82784;BME280;72520;55.762;37.780;2024-03-17T00:49:30;100195.38;;;1.41;63.38
82784;BME280;72520;55.762;37.780;2024-03-17T00:52:34;100195.25;;;1.47;63.32
82784;BME280;72520;55.762;37.780;2024-03-17T00:55:36;100191.94;;;1.39;63.73
82784;BME280;72520;55.762;37.780;2024-03-17T00:58:38;100195.31;;;1.44;63.38
82784;BME280;72520;55.762;37.780;2024-03-17T01:01:41;100191.72;;;1.49;63.48
82784;BME280;72520;55.762;37.780;2024-03-17T01:04:49;100186.41;;;1.51;63.08
82784;BME280;72520;55.762;37.780;2024-03-17T01:07:54;100181.16;;;1.51;62.86
82784;BME280;72520;55.762;37.780;2024-03-17T01:10:59;100180.19;;;1.17;63.99
82784;BME280;72520;55.762;37.780;2024-03-17T01:14:03;100184.59;;;1.15;64.33
82784;BME280;72520;55.762;37.780;2024-03-17T01:17:10;100179.66;;;1.01;64.71
82784;BME280;72520;55.762;37.780;2024-03-17T01:20:11;100183.22;;;0.97;64.72
82784;BME280;72520;55.762;37.780;2024-03-17T01:23:16;100181.81;;;0.81;65.36
82784;BME280;72520;55.762;37.780;2024-03-17T01:26:17;100184.31;;;0.85;65.25
82784;BME280;72520;55.762;37.780;2024-03-17T01:29:19;100178.34;;;0.79;65.72
82784;BME280;72520;55.762;37.780;2024-03-17T01:32:24;100177.53;;;0.75;65.36
82784;BME280;72520;55.762;37.780;2024-03-17T01:35:28;100161.09;;;0.69;66.04
82784;BME280;72520;55.762;37.780;2024-03-17T01:38:29;100161.91;;;0.72;65.42
82784;BME280;72520;55.762;37.780;2024-03-17T01:41:31;100158.03;;;0.91;65.53
82784;BME280;72520;55.762;37.780;2024-03-17T01:44:33;100157.38;;;0.80;65.68
82784;BME280;72520;55.762;37.780;2024-03-17T01:47:41;100159.88;;;0.86;65.75
82784;BME280;72520;55.762;37.780;2024-03-17T01:50:44;100163.50;;;0.79;65.52
82784;BME280;72520;55.762;37.780;2024-03-17T01:53:48;100161.59;;;0.87;65.28
82784;BME280;72520;55.762;37.780;2024-03-17T01:56:50;100168.44;;;0.94;65.06
82784;BME280;72520;55.762;37.780;2024-03-17T01:59:52;100170.09;;;0.98;64.82
82784;BME280;72520;55.762;37.780;2024-03-17T02:02:59;100160.53;;;0.96;64.68
82784;BME280;72520;55.762;37.780;2024-03-17T02:06:02;100157.09;;;0.94;64.93
82784;BME280;72520;55.762;37.780;2024-03-17T02:09:05;100151.06;;;0.90;64.86
82784;BME280;72520;55.762;37.780;2024-03-17T02:12:10;100152.34;;;0.71;65.31
82784;BME280;72520;55.762;37.780;2024-03-17T02:15:12;100150.63;;;0.69;65.93
82784;BME280;72520;55.762;37.780;2024-03-17T02:18:16;100141.88;;;0.70;65.58
82784;BME280;72520;55.762;37.780;2024-03-17T02:21:21;100141.66;;;0.80;65.27
82784;BME280;72520;55.762;37.780;2024-03-17T02:24:26;100138.44;;;0.66;65.87
82784;BME280;72520;55.762;37.780;2024-03-17T02:27:30;100142.53;;;0.79;65.28
82784;BME280;72520;55.762;37.780;2024-03-17T02:30:32;100126.97;;;0.72;65.53
82784;BME280;72520;55.762;37.780;2024-03-17T02:33:33;100128.75;;;0.71;65.60
82784;BME280;72520;55.762;37.780;2024-03-17T02:36:36;100129.66;;;0.69;65.73
82784;BME280;72520;55.762;37.780;2024-03-17T02:39:38;100133.16;;;0.69;65.74
82784;BME280;72520;55.762;37.780;2024-03-17T02:42:41;100124.31;;;0.75;65.41
82784;BME280;72520;55.762;37.780;2024-03-17T02:45:45;100130.31;;;0.78;65.75
82784;BME280;72520;55.762;37.780;2024-03-17T02:48:50;100124.13;;;0.84;65.03
82784;BME280;72520;55.762;37.780;2024-03-17T02:51:53;100128.47;;;0.85;64.55
82784;BME280;72520;55.762;37.780;2024-03-17T02:54:57;100124.31;;;0.75;65.36
82784;BME280;72520;55.762;37.780;2024-03-17T02:57:59;100118.22;;;0.74;65.15
82784;BME280;72520;55.762;37.780;2024-03-17T03:01:02;100123.53;;;0.71;65.40
82784;BME280;72520;55.762;37.780;2024-03-17T03:04:05;100125.16;;;0.75;65.32
82784;BME280;72520;55.762;37.780;2024-03-17T03:07:07;100119.13;;;0.72;65.18
82784;BME280;72520;55.762;37.780;2024-03-17T03:10:11;100119.59;;;0.90;64.80
82784;BME280;72520;55.762;37.780;2024-03-17T03:13:13;100115.69;;;0.70;65.16
82784;BME280;72520;55.762;37.780;2024-03-17T03:16:17;100115.31;;;0.45;65.56
82784;BME280;72520;55.762;37.780;2024-03-17T03:19:21;100118.78;;;0.45;66.32
82784;BME280;72520;55.762;37.780;2024-03-17T03:22:23;100111.94;;;0.38;66.00
82784;BME280;72520;55.762;37.780;2024-03-17T03:25:27;100114.34;;;0.49;66.11
82784;BME280;72520;55.762;37.780;2024-03-17T03:28:31;100115.25;;;0.48;66.16
82784;BME280;72520;55.762;37.780;2024-03-17T03:31:34;100113.53;;;0.47;66.00
82784;BME280;72520;55.762;37.780;2024-03-17T03:34:36;100098.72;;;0.44;66.52
82784;BME280;72520;55.762;37.780;2024-03-17T03:37:43;100103.06;;;0.47;66.26
82784;BME280;72520;55.762;37.780;2024-03-17T03:40:47;100096.88;;;0.51;66.31
82784;BME280;72520;55.762;37.780;2024-03-17T03:43:53;100101.13;;;0.55;65.78
82784;BME280;72520;55.762;37.780;2024-03-17T03:46:55;100092.53;;;0.50;66.37
82784;BME280;72520;55.762;37.780;2024-03-17T03:49:59;100094.25;;;0.51;66.27
82784;BME280;72520;55.762;37.780;2024-03-17T03:53:01;100088.97;;;0.54;65.65
82784;BME280;72520;55.762;37.780;2024-03-17T03:56:06;100101.03;;;0.61;65.75
82784;BME280;72520;55.762;37.780;2024-03-17T03:59:08;100087.75;;;0.69;66.08
82784;BME280;72520;55.762;37.780;2024-03-17T04:02:10;100091.00;;;0.81;65.67
82784;BME280;72520;55.762;37.780;2024-03-17T04:05:18;100086.56;;;0.85;65.57
82784;BME280;72520;55.762;37.780;2024-03-17T04:08:24;100075.81;;;0.95;64.96
82784;BME280;72520;55.762;37.780;2024-03-17T04:11:29;100077.44;;;1.01;64.76
82784;BME280;72520;55.762;37.780;2024-03-17T04:14:35;100081.59;;;1.11;64.33
82784;BME280;72520;55.762;37.780;2024-03-17T04:17:37;100089.34;;;0.77;64.87
82784;BME280;72520;55.762;37.780;2024-03-17T04:20:40;100088.41;;;0.80;64.86
82784;BME280;72520;55.762;37.780;2024-03-17T04:23:42;100089.28;;;0.79;64.77
82784;BME280;72520;55.762;37.780;2024-03-17T04:26:46;100091.09;;;0.77;64.84
82784;BME280;72520;55.762;37.780;2024-03-17T04:29:49;100090.19;;;0.78;64.80
82784;BME280;72520;55.762;37.780;2024-03-17T04:32:51;100087.88;;;0.64;65.21
82784;BME280;72520;55.762;37.780;2024-03-17T04:35:54;100087.56;;;0.78;64.99
82784;BME280;72520;55.762;37.780;2024-03-17T04:38:56;100085.97;;;0.71;65.32
82784;BME280;72520;55.762;37.780;2024-03-17T04:42:00;100082.72;;;0.58;65.39
82784;BME280;72520;55.762;37.780;2024-03-17T04:45:07;100078.47;;;0.54;66.09
82784;BME280;72520;55.762;37.780;2024-03-17T04:48:12;100083.25;;;0.75;65.20
82784;BME280;72520;55.762;37.780;2024-03-17T04:51:16;100080.41;;;0.86;65.25
82784;BME280;72520;55.762;37.780;2024-03-17T04:54:18;100073.06;;;1.01;64.60
82784;BME280;72520;55.762;37.780;2024-03-17T04:57:23;100081.25;;;1.25;64.27
82784;BME280;72520;55.762;37.780;2024-03-17T05:00:26;100076.25;;;1.51;63.23
82784;BME280;72520;55.762;37.780;2024-03-17T05:03:28;100080.72;;;1.47;62.74
82784;BME280;72520;55.762;37.780;2024-03-17T05:06:33;100076.22;;;1.52;63.16
82784;BME280;72520;55.762;37.780;2024-03-17T05:09:35;100077.66;;;1.64;62.46
82784;BME280;72520;55.762;37.780;2024-03-17T05:12:39;100075.47;;;1.47;63.54
82784;BME280;72520;55.762;37.780;2024-03-17T05:15:41;100080.34;;;1.63;62.71
82784;BME280;72520;55.762;37.780;2024-03-17T05:18:43;100083.00;;;1.95;61.65
82784;BME280;72520;55.762;37.780;2024-03-17T05:21:46;100087.97;;;2.05;61.12
82784;BME280;72520;55.762;37.780;2024-03-17T05:24:48;100082.78;;;2.35;60.67
82784;BME280;72520;55.762;37.780;2024-03-17T05:27:52;100093.13;;;2.41;59.93
82784;BME280;72520;55.762;37.780;2024-03-17T05:30:57;100086.84;;;2.46;59.87
82784;BME280;72520;55.762;37.780;2024-03-17T05:34:01;100080.91;;;2.40;60.44
82784;BME280;72520;55.762;37.780;2024-03-17T05:37:04;100087.03;;;2.39;60.06
82784;BME280;72520;55.762;37.780;2024-03-17T05:40:07;100088.50;;;2.49;60.21
82784;BME280;72520;55.762;37.780;2024-03-17T05:43:16;100087.19;;;2.94;59.37
82784;BME280;72520;55.762;37.780;2024-03-17T05:46:26;100088.66;;;3.03;58.55
82784;BME280;72520;55.762;37.780;2024-03-17T05:49:29;100085.25;;;3.29;58.06
82784;BME280;72520;55.762;37.780;2024-03-17T05:52:31;100076.84;;;3.44;56.99
82784;BME280;72520;55.762;37.780;2024-03-17T05:55:35;100078.66;;;3.70;56.89
82784;BME280;72520;55.762;37.780;2024-03-17T05:58:39;100083.56;;;3.80;56.41
82784;BME280;72520;55.762;37.780;2024-03-17T06:01:41;100081.16;;;3.73;56.89
82784;BME280;72520;55.762;37.780;2024-03-17T06:04:43;100083.88;;;3.96;56.46
82784;BME280;72520;55.762;37.780;2024-03-17T06:07:46;100080.03;;;4.06;55.82
82784;BME280;72520;55.762;37.780;2024-03-17T06:10:50;100081.81;;;4.53;54.71
82784;BME280;72520;55.762;37.780;2024-03-17T06:13:53;100078.94;;;4.36;54.73
82784;BME280;72520;55.762;37.780;2024-03-17T06:16:56;100076.91;;;4.20;54.93
82784;BME280;72520;55.762;37.780;2024-03-17T06:20:01;100076.03;;;4.67;54.20
82784;BME280;72520;55.762;37.780;2024-03-17T06:23:04;100069.28;;;5.50;52.38
82784;BME280;72520;55.762;37.780;2024-03-17T06:26:09;100065.63;;;5.74;51.92
82784;BME280;72520;55.762;37.780;2024-03-17T06:29:15;100062.44;;;5.88;51.70
82784;BME280;72520;55.762;37.780;2024-03-17T06:32:17;100067.97;;;6.62;49.41
82784;BME280;72520;55.762;37.780;2024-03-17T06:35:22;100065.75;;;6.72;49.01
82784;BME280;72520;55.762;37.780;2024-03-17T06:38:27;100062.09;;;6.56;49.37
82784;BME280;72520;55.762;37.780;2024-03-17T06:41:32;100060.66;;;6.68;49.57
82784;BME280;72520;55.762;37.780;2024-03-17T06:44:41;100059.97;;;7.01;48.69
82784;BME280;72520;55.762;37.780;2024-03-17T06:47:43;100051.88;;;7.04;48.19
82784;BME280;72520;55.762;37.780;2024-03-17T06:50:45;100053.53;;;6.88;49.45
82784;BME280;72520;55.762;37.780;2024-03-17T06:53:48;100048.47;;;6.45;50.52
82784;BME280;72520;55.762;37.780;2024-03-17T06:56:51;100057.91;;;6.50;50.99
82784;BME280;72520;55.762;37.780;2024-03-17T06:59:56;100051.16;;;6.04;51.66
82784;BME280;72520;55.762;37.780;2024-03-17T07:02:58;100053.84;;;6.23;52.22
82784;BME280;72520;55.762;37.780;2024-03-17T07:06:04;100051.31;;;6.40;51.32
82784;BME280;72520;55.762;37.780;2024-03-17T07:09:09;100045.78;;;6.46;50.96
82784;BME280;72520;55.762;37.780;2024-03-17T07:12:11;100050.88;;;6.31;51.74
82784;BME280;72520;55.762;37.780;2024-03-17T07:15:18;100047.97;;;6.17;52.47
82784;BME280;72520;55.762;37.780;2024-03-17T07:18:20;100047.47;;;6.47;51.99
82784;BME280;72520;55.762;37.780;2024-03-17T07:24:43;100036.88;;;6.29;52.79
82784;BME280;72520;55.762;37.780;2024-03-17T07:27:45;100044.44;;;6.36;52.45
82784;BME280;72520;55.762;37.780;2024-03-17T07:30:52;100036.47;;;6.38;51.87
82784;BME280;72520;55.762;37.780;2024-03-17T07:33:54;100032.91;;;6.39;52.26
82784;BME280;72520;55.762;37.780;2024-03-17T07:36:57;100039.91;;;5.99;53.14
82784;BME280;72520;55.762;37.780;2024-03-17T07:40:03;100034.41;;;5.63;53.91
82784;BME280;72520;55.762;37.780;2024-03-17T07:43:07;100042.63;;;5.56;54.31
82784;BME280;72520;55.762;37.780;2024-03-17T07:46:14;100033.00;;;5.33;54.83
82784;BME280;72520;55.762;37.780;2024-03-17T07:49:17;100035.13;;;5.45;54.34
82784;BME280;72520;55.762;37.780;2024-03-17T07:52:19;100035.97;;;5.47;55.02
82784;BME280;72520;55.762;37.780;2024-03-17T07:55:21;100039.50;;;5.46;54.78
82784;BME280;72520;55.762;37.780;2024-03-17T07:58:24;100032.44;;;5.25;55.48
82784;BME280;72520;55.762;37.780;2024-03-17T08:01:29;100027.47;;;5.39;56.02
82784;BME280;72520;55.762;37.780;2024-03-17T08:04:31;100031.47;;;5.28;55.51
82784;BME280;72520;55.762;37.780;2024-03-17T08:07:33;100032.00;;;5.57;55.46
82784;BME280;72520;55.762;37.780;2024-03-17T08:10:37;100030.00;;;5.84;54.37
82784;BME280;72520;55.762;37.780;2024-03-17T08:13:39;100031.69;;;5.85;54.50
82784;BME280;72520;55.762;37.780;2024-03-17T08:16:45;100020.16;;;5.68;54.99
82784;BME280;72520;55.762;37.780;2024-03-17T08:19:47;100026.47;;;5.63;54.23
82784;BME280;72520;55.762;37.780;2024-03-17T08:22:52;100022.91;;;5.64;55.37
82784;BME280;72520;55.762;37.780;2024-03-17T08:25:55;100029.16;;;5.62;54.43
82784;BME280;72520;55.762;37.780;2024-03-17T08:28:58;100027.06;;;5.70;54.14
82784;BME280;72520;55.762;37.780;2024-03-17T08:32:01;100027.47;;;5.61;53.76
82784;BME280;72520;55.762;37.780;2024-03-17T08:35:04;100019.16;;;5.48;54.70
82784;BME280;72520;55.762;37.780;2024-03-17T08:38:08;100012.59;;;5.58;54.36
82784;BME280;72520;55.762;37.780;2024-03-17T08:41:12;100012.88;;;5.73;53.84
82784;BME280;72520;55.762;37.780;2024-03-17T08:44:17;100017.84;;;5.80;54.07
82784;BME280;72520;55.762;37.780;2024-03-17T08:47:21;100012.59;;;6.00;53.93
82784;BME280;72520;55.762;37.780;2024-03-17T08:50:26;100010.22;;;6.33;53.20
82784;BME280;72520;55.762;37.780;2024-03-17T08:53:29;100009.88;;;6.22;53.78
82784;BME280;72520;55.762;37.780;2024-03-17T08:56:36;100009.59;;;6.47;52.64
82784;BME280;72520;55.762;37.780;2024-03-17T08:59:41;100007.28;;;6.21;53.29
82784;BME280;72520;55.762;37.780;2024-03-17T09:02:47;100011.94;;;6.16;54.12
82784;BME280;72520;55.762;37.780;2024-03-17T09:05:49;100005.78;;;6.34;53.64
82784;BME280;72520;55.762;37.780;2024-03-17T09:08:55;100008.00;;;6.24;54.20
82784;BME280;72520;55.762;37.780;2024-03-17T09:11:59;100008.41;;;6.15;54.09
82784;BME280;72520;55.762;37.780;2024-03-17T09:15:01;100013.47;;;6.20;54.06
82784;BME280;72520;55.762;37.780;2024-03-17T09:18:07;100007.41;;;6.18;54.65
82784;BME280;72520;55.762;37.780;2024-03-17T09:21:14;100003.56;;;6.25;53.88
82784;BME280;72520;55.762;37.780;2024-03-17T09:24:18;99998.81;;;6.33;54.21
82784;BME280;72520;55.762;37.780;2024-03-17T09:27:21;99997.44;;;6.24;53.86
82784;BME280;72520;55.762;37.780;2024-03-17T09:30:26;100007.47;;;6.16;54.42
82784;BME280;72520;55.762;37.780;2024-03-17T09:33:30;100002.25;;;6.35;54.07
82784;BME280;72520;55.762;37.780;2024-03-17T09:36:33;100001.31;;;6.54;53.80
82784;BME280;72520;55.762;37.780;2024-03-17T09:39:37;100006.69;;;6.53;53.82
82784;BME280;72520;55.762;37.780;2024-03-17T09:42:41;100012.75;;;6.55;53.68
82784;BME280;72520;55.762;37.780;2024-03-17T09:45:44;100007.75;;;6.49;53.90
82784;BME280;72520;55.762;37.780;2024-03-17T09:48:48;100002.88;;;6.40;53.62
82784;BME280;72520;55.762;37.780;2024-03-17T09:51:58;100002.28;;;6.33;53.81
82784;BME280;72520;55.762;37.780;2024-03-17T09:55:05;100004.13;;;6.51;53.75
82784;BME280;72520;55.762;37.780;2024-03-17T09:58:17;99995.56;;;6.84;52.84
82784;BME280;72520;55.762;37.780;2024-03-17T10:01:20;99992.66;;;7.07;51.97
82784;BME280;72520;55.762;37.780;2024-03-17T10:04:32;99992.09;;;7.00;52.49
82784;BME280;72520;55.762;37.780;2024-03-17T10:07:38;99980.28;;;7.07;52.87
82784;BME280;72520;55.762;37.780;2024-03-17T10:10:40;99986.69;;;7.21;52.48
82784;BME280;72520;55.762;37.780;2024-03-17T10:13:43;99992.97;;;7.18;51.98
82784;BME280;72520;55.762;37.780;2024-03-17T10:16:54;99985.44;;;7.10;52.44
82784;BME280;72520;55.762;37.780;2024-03-17T10:20:11;99980.56;;;7.01;52.82
82784;BME280;72520;55.762;37.780;2024-03-17T10:23:16;99977.81;;;7.22;52.47
82784;BME280;72520;55.762;37.780;2024-03-17T10:26:25;99973.19;;;7.44;51.91
82784;BME280;72520;55.762;37.780;2024-03-17T10:29:30;99965.41;;;7.58;51.33
82784;BME280;72520;55.762;37.780;2024-03-17T10:32:33;99964.69;;;7.54;51.73
82784;BME280;72520;55.762;37.780;2024-03-17T10:35:40;99962.84;;;8.06;51.09
82784;BME280;72520;55.762;37.780;2024-03-17T10:38:51;99954.69;;;7.94;51.11
82784;BME280;72520;55.762;37.780;2024-03-17T10:41:57;99962.75;;;7.75;50.51
82784;BME280;72520;55.762;37.780;2024-03-17T10:45:01;99960.63;;;7.99;50.59
82784;BME280;72520;55.762;37.780;2024-03-17T10:48:09;99958.19;;;8.11;50.32
82784;BME280;72520;55.762;37.780;2024-03-17T10:51:21;99950.56;;;8.05;50.17
82784;BME280;72520;55.762;37.780;2024-03-17T10:54:25;99950.00;;;8.16;50.40
82784;BME280;72520;55.762;37.780;2024-03-17T10:57:36;99943.31;;;8.25;49.39
82784;BME280;72520;55.762;37.780;2024-03-17T11:00:47;99941.50;;;8.42;49.61
82784;BME280;72520;55.762;37.780;2024-03-17T11:03:49;99948.31;;;7.98;49.46
82784;BME280;72520;55.762;37.780;2024-03-17T11:06:55;99943.50;;;7.89;49.76
82784;BME280;72520;55.762;37.780;2024-03-17T11:10:00;99952.44;;;7.52;51.19
82784;BME280;72520;55.762;37.780;2024-03-17T11:13:05;99951.84;;;7.64;51.04
82784;BME280;72520;55.762;37.780;2024-03-17T11:16:25;99946.41;;;8.00;49.91
82784;BME280;72520;55.762;37.780;2024-03-17T11:19:31;99941.22;;;7.98;50.59
82784;BME280;72520;55.762;37.780;2024-03-17T11:22:44;99940.91;;;7.87;50.75
82784;BME280;72520;55.762;37.780;2024-03-17T11:25:52;99938.38;;;7.68;50.21
82784;BME280;72520;55.762;37.780;2024-03-17T11:28:54;99940.53;;;7.43;50.85
82784;BME280;72520;55.762;37.780;2024-03-17T11:31:57;99940.53;;;7.43;51.70
82784;BME280;72520;55.762;37.780;2024-03-17T11:35:13;99940.53;;;7.43;51.54
82784;BME280;72520;55.762;37.780;2024-03-17T11:41:48;99937.25;;;7.38;51.27
82784;BME280;72520;55.762;37.780;2024-03-17T11:44:58;99929.47;;;7.35;51.81
82784;BME280;72520;55.762;37.780;2024-03-17T11:48:19;99924.88;;;7.39;51.45
82784;BME280;72520;55.762;37.780;2024-03-17T11:51:21;99926.44;;;7.26;52.29
82784;BME280;72520;55.762;37.780;2024-03-17T11:54:25;99928.47;;;7.21;52.08
82784;BME280;72520;55.762;37.780;2024-03-17T11:57:30;99926.41;;;7.08;52.68
82784;BME280;72520;55.762;37.780;2024-03-17T12:00:32;99926.72;;;7.02;52.43
82784;BME280;72520;55.762;37.780;2024-03-17T12:03:35;99919.84;;;6.98;52.84
82784;BME280;72520;55.762;37.780;2024-03-17T12:06:36;99911.06;;;6.98;52.78
82784;BME280;72520;55.762;37.780;2024-03-17T12:09:39;99922.34;;;7.01;53.46
82784;BME280;72520;55.762;37.780;2024-03-17T12:12:46;99925.16;;;6.98;53.03
82784;BME280;72520;55.762;37.780;2024-03-17T12:15:49;99922.81;;;6.92;53.17
82784;BME280;72520;55.762;37.780;2024-03-17T12:18:50;99920.88;;;6.96;53.30
82784;BME280;72520;55.762;37.780;2024-03-17T12:21:54;99922.81;;;6.92;53.62
82784;BME280;72520;55.762;37.780;2024-03-17T12:24:56;99922.88;;;6.91;54.11
82784;BME280;72520;55.762;37.780;2024-03-17T12:28:15;99917.81;;;6.86;54.03
82784;BME280;72520;55.762;37.780;2024-03-17T12:31:19;99918.91;;;6.82;54.83
82784;BME280;72520;55.762;37.780;2024-03-17T12:34:21;99913.38;;;6.87;54.49
82784;BME280;72520;55.762;37.780;2024-03-17T12:37:25;99922.97;;;6.89;55.20
82784;BME280;72520;55.762;37.780;2024-03-17T12:40:34;99915.19;;;6.86;55.40
82784;BME280;72520;55.762;37.780;2024-03-17T12:43:36;99920.03;;;7.12;54.23
82784;BME280;72520;55.762;37.780;2024-03-17T12:46:39;99916.31;;;7.16;53.76
82784;BME280;72520;55.762;37.780;2024-03-17T12:49:45;99917.38;;;7.12;53.69
82784;BME280;72520;55.762;37.780;2024-03-17T12:52:54;99901.50;;;7.12;54.20
82784;BME280;72520;55.762;37.780;2024-03-17T12:55:56;99905.59;;;7.01;54.22
82784;BME280;72520;55.762;37.780;2024-03-17T12:59:17;99911.91;;;6.98;54.38
82784;BME280;72520;55.762;37.780;2024-03-17T13:02:43;99899.63;;;6.97;54.24
82784;BME280;72520;55.762;37.780;2024-03-17T13:05:47;99898.13;;;6.92;54.43
82784;BME280;72520;55.762;37.780;2024-03-17T13:08:52;99902.53;;;6.74;55.17
82784;BME280;72520;55.762;37.780;2024-03-17T13:11:54;99909.94;;;6.85;55.07
82784;BME280;72520;55.762;37.780;2024-03-17T13:14:58;99903.53;;;6.72;55.10
82784;BME280;72520;55.762;37.780;2024-03-17T13:18:00;99892.75;;;6.76;55.69
82784;BME280;72520;55.762;37.780;2024-03-17T13:21:07;99900.69;;;6.76;55.48
82784;BME280;72520;55.762;37.780;2024-03-17T13:24:09;99891.22;;;6.89;54.86
82784;BME280;72520;55.762;37.780;2024-03-17T13:27:11;99900.88;;;6.72;56.02
82784;BME280;72520;55.762;37.780;2024-03-17T13:30:18;99884.66;;;6.79;55.24
82784;BME280;72520;55.762;37.780;2024-03-17T13:33:20;99886.81;;;6.71;55.72
82784;BME280;72520;55.762;37.780;2024-03-17T13:36:24;99880.97;;;6.64;55.61
82784;BME280;72520;55.762;37.780;2024-03-17T13:39:29;99878.75;;;6.55;56.38
82784;BME280;72520;55.762;37.780;2024-03-17T13:42:32;99880.50;;;6.56;56.31
82784;BME280;72520;55.762;37.780;2024-03-17T13:45:38;99886.41;;;6.61;55.84
82784;BME280;72520;55.762;37.780;2024-03-17T13:48:41;99875.09;;;6.58;55.89
82784;BME280;72520;55.762;37.780;2024-03-17T13:51:45;99879.69;;;6.54;55.99
82784;BME280;72520;55.762;37.780;2024-03-17T13:54:47;99876.97;;;6.56;55.57
82784;BME280;72520;55.762;37.780;2024-03-17T13:57:53;99871.53;;;6.40;55.68
82784;BME280;72520;55.762;37.780;2024-03-17T14:00:57;99870.63;;;6.41;55.93
82784;BME280;72520;55.762;37.780;2024-03-17T14:04:00;99877.69;;;6.41;56.27
82784;BME280;72520;55.762;37.780;2024-03-17T14:07:04;99881.34;;;6.38;56.37
82784;BME280;72520;55.762;37.780;2024-03-17T14:10:07;99876.56;;;6.28;56.56
82784;BME280;72520;55.762;37.780;2024-03-17T14:13:10;99879.97;;;6.30;56.02
82784;BME280;72520;55.762;37.780;2024-03-17T14:16:13;99873.88;;;6.29;56.62
82784;BME280;72520;55.762;37.780;2024-03-17T14:19:17;99865.69;;;6.34;56.45
82784;BME280;72520;55.762;37.780;2024-03-17T14:22:22;99869.66;;;6.25;56.97
82784;BME280;72520;55.762;37.780;2024-03-17T14:25:26;99871.56;;;6.22;56.99
82784;BME280;72520;55.762;37.780;2024-03-17T14:28:32;99873.16;;;6.26;56.64
82784;BME280;72520;55.762;37.780;2024-03-17T14:31:36;99869.69;;;6.24;56.91
82784;BME280;72520;55.762;37.780;2024-03-17T14:34:41;99863.56;;;6.23;56.37
82784;BME280;72520;55.762;37.780;2024-03-17T14:37:44;99855.47;;;6.26;56.74
82784;BME280;72520;55.762;37.780;2024-03-17T14:40:51;99854.25;;;6.33;56.83
82784;BME280;72520;55.762;37.780;2024-03-17T14:43:57;99863.50;;;6.25;56.86
82784;BME280;72520;55.762;37.780;2024-03-17T14:47:00;99850.91;;;6.30;56.25
82784;BME280;72520;55.762;37.780;2024-03-17T14:50:05;99858.00;;;6.29;56.47
82784;BME280;72520;55.762;37.780;2024-03-17T14:53:08;99857.34;;;6.24;56.83
82784;BME280;72520;55.762;37.780;2024-03-17T14:56:10;99863.50;;;6.25;56.85
82784;BME280;72520;55.762;37.780;2024-03-17T14:59:15;99863.69;;;6.20;56.10
82784;BME280;72520;55.762;37.780;2024-03-17T15:02:21;99866.25;;;6.03;56.80
82784;BME280;72520;55.762;37.780;2024-03-17T15:05:24;99872.28;;;6.06;56.99
82784;BME280;72520;55.762;37.780;2024-03-17T15:08:31;99859.41;;;5.99;57.41
82784;BME280;72520;55.762;37.780;2024-03-17T15:11:33;99865.25;;;5.87;57.85
82784;BME280;72520;55.762;37.780;2024-03-17T15:14:35;99865.50;;;5.81;57.70
82784;BME280;72520;55.762;37.780;2024-03-17T15:17:40;99874.69;;;5.72;57.83
82784;BME280;72520;55.762;37.780;2024-03-17T15:20:51;99870.59;;;5.65;57.83
82784;BME280;72520;55.762;37.780;2024-03-17T15:23:54;99870.25;;;5.54;57.76
82784;BME280;72520;55.762;37.780;2024-03-17T15:26:59;99873.25;;;5.45;58.17
82784;BME280;72520;55.762;37.780;2024-03-17T15:30:01;99872.34;;;5.46;57.73
82784;BME280;72520;55.762;37.780;2024-03-17T15:33:06;99866.66;;;5.35;57.75
82784;BME280;72520;55.762;37.780;2024-03-17T15:36:08;99877.22;;;5.35;58.24
82784;BME280;72520;55.762;37.780;2024-03-17T15:39:11;99870.16;;;5.35;57.64
82784;BME280;72520;55.762;37.780;2024-03-17T15:42:14;99874.84;;;5.29;57.75
82784;BME280;72520;55.762;37.780;2024-03-17T15:45:18;99870.75;;;5.22;58.00
82784;BME280;72520;55.762;37.780;2024-03-17T15:48:25;99875.44;;;5.15;58.49
82784;BME280;72520;55.762;37.780;2024-03-17T15:51:31;99865.63;;;5.19;58.50
82784;BME280;72520;55.762;37.780;2024-03-17T15:54:34;99863.25;;;5.12;58.39
82784;BME280;72520;55.762;37.780;2024-03-17T15:57:36;99871.28;;;5.09;58.42
82784;BME280;72520;55.762;37.780;2024-03-17T16:00:39;99868.97;;;5.02;58.28
82784;BME280;72520;55.762;37.780;2024-03-17T16:03:46;99869.56;;;5.08;58.36
82784;BME280;72520;55.762;37.780;2024-03-17T16:06:48;99869.44;;;5.11;57.98
82784;BME280;72520;55.762;37.780;2024-03-17T16:09:55;99871.88;;;4.96;58.67
82784;BME280;72520;55.762;37.780;2024-03-17T16:12:57;99873.94;;;5.09;58.56
82784;BME280;72520;55.762;37.780;2024-03-17T16:16:00;99872.88;;;5.13;58.72